Time;durP1;ratioP1;P1;durP2;ratioP2;P2;SDS_P1;SDS_P2;PMS_P1;PMS_P2;Temp;Humidity;BMP_temperature;BMP_pressure;BME280_temperature;BME280_humidity;BME280_pressure;Samples;Min_cycle;Max_cycle;Signal;HPM_P1;HPM_P2
2021/08/03 00:00:39;;;;;;;1.95;1.65;;;;;;;17.23;76.77;99765.57;1592311;90;21078;-79
2021/08/03 00:03:08;;;;;;;5.42;1.77;;;;;;;17.21;76.89;99767.03;1592123;90;21133;-78
2021/08/03 00:05:39;;;;;;;4.20;2.10;;;;;;;17.19;76.27;99764.47;1593268;89;21532;-78
2021/08/03 00:08:28;;;;;;;3.65;2.02;;;;;;;17.18;77.58;99762.78;1603518;89;21070;-76
2021/08/03 00:10:55;;;;;;;5.30;2.27;;;;;;;17.16;76.94;99761.16;1603709;89;21533;-77
2021/08/03 00:13:25;;;;;;;3.47;1.85;;;;;;;17.14;77.13;99756.45;1607225;89;21153;-78
2021/08/03 00:15:53;;;;;;;7.13;2.90;;;;;;;17.13;78.17;99753.41;1603051;89;21054;-79
2021/08/03 00:18:21;;;;;;;4.95;2.00;;;;;;;17.13;78.02;99758.23;1582679;89;21093;-82
2021/08/03 00:20:50;;;;;;;7.55;2.58;;;;;;;17.11;78.13;99757.98;1608209;89;22117;-80
2021/08/03 00:23:17;;;;;;;4.75;2.02;;;;;;;17.10;78.42;99761.61;1608602;89;21133;-82
2021/08/03 00:28:05;;;;;;;3.12;2.12;;;;;;;17.10;78.45;99767.77;1853716;77;22669;-81
2021/08/03 00:30:32;;;;;;;3.40;2.33;;;;;;;17.05;77.82;99778.38;1786889;80;21321;-80
2021/08/03 00:32:59;;;;;;;3.45;2.08;;;;;;;17.01;77.71;99775.55;1788014;80;21544;-82
2021/08/03 00:35:26;;;;;;;2.87;2.00;;;;;;;16.99;78.20;99778.31;1754979;81;21022;-84
2021/08/03 00:37:53;;;;;;;2.90;1.50;;;;;;;16.96;76.68;99783.85;1787943;80;20945;-83
2021/08/03 00:40:20;;;;;;;4.85;2.45;;;;;;;16.93;77.97;99782.71;1755137;81;21215;-83
2021/08/03 00:42:47;;;;;;;2.70;1.92;;;;;;;16.90;77.73;99777.12;1788062;80;21017;-81
2021/08/03 00:45:16;;;;;;;3.80;2.02;;;;;;;16.88;77.62;99777.70;1754893;81;21530;-77
2021/08/03 00:47:44;;;;;;;4.50;1.90;;;;;;;16.86;78.65;99775.62;1786549;80;20977;-78
2021/08/03 00:50:13;;;;;;;4.20;1.70;;;;;;;16.83;78.18;99776.34;1754357;81;21120;-76
2021/08/03 00:52:42;;;;;;;2.45;1.95;;;;;;;16.83;78.47;99775.01;1787414;80;21120;-81
2021/08/03 00:55:11;;;;;;;2.75;1.92;;;;;;;16.80;78.50;99778.73;1755297;81;21069;-77
2021/08/03 00:57:40;;;;;;;2.05;1.70;;;;;;;16.76;77.58;99778.53;1781870;80;21148;-80
2021/08/03 01:00:09;;;;;;;5.20;2.42;;;;;;;16.75;79.78;99775.51;1728458;81;21026;-78
2021/08/03 01:02:38;;;;;;;3.53;2.23;;;;;;;16.72;79.77;99782.34;1732701;82;21101;-78
2021/08/03 01:05:06;;;;;;;2.95;2.30;;;;;;;16.71;79.03;99784.64;1732065;82;21089;-79
2021/08/03 01:07:44;;;;;;;4.25;2.42;;;;;;;16.71;80.63;99789.96;1732160;82;21084;-79
2021/08/03 01:10:36;;;;;;;4.37;2.72;;;;;;;16.68;79.10;99791.02;1732270;82;21911;-79
2021/08/03 01:13:40;;;;;;;6.35;3.47;;;;;;;16.67;80.66;99796.44;1731808;81;21029;-78
2021/08/03 01:16:30;;;;;;;5.28;2.77;;;;;;;16.64;82.25;99804.63;1712346;82;21579;-80
2021/08/03 01:19:32;;;;;;;3.60;2.70;;;;;;;16.57;81.46;99803.70;1731385;82;26532;-78
2021/08/03 01:22:30;;;;;;;4.87;2.80;;;;;;;16.54;80.37;99805.25;1731587;82;21135;-79
2021/08/03 01:25:12;;;;;;;6.00;3.05;;;;;;;16.48;81.46;99805.64;1710815;82;21174;-79
2021/08/03 01:28:12;;;;;;;4.03;2.45;;;;;;;16.44;82.06;99813.44;1704477;82;21545;-76
2021/08/03 01:30:44;;;;;;;5.97;2.33;;;;;;;16.36;81.10;99818.43;1690753;84;21125;-77
2021/08/03 01:33:11;;;;;;;4.50;2.70;;;;;;;16.29;81.20;99819.79;1690183;84;21155;-79
2021/08/03 01:35:41;;;;;;;7.65;2.77;;;;;;;16.25;82.70;99821.78;1690563;84;22136;-78
2021/08/03 01:38:10;;;;;;;4.17;2.10;;;;;;;16.22;82.22;99819.78;1690169;83;21856;-76
2021/08/03 01:40:41;;;;;;;5.58;2.90;;;;;;;16.20;83.12;99825.70;1690297;83;21561;-77
2021/08/03 01:43:08;;;;;;;6.03;2.10;;;;;;;16.18;82.92;99827.61;1689737;84;21287;-83
2021/08/03 01:45:35;;;;;;;3.70;2.60;;;;;;;16.13;82.55;99824.77;1690120;84;20999;-81
2021/08/03 01:48:06;;;;;;;4.08;2.60;;;;;;;16.15;83.92;99832.16;1689683;84;21085;-80
2021/08/03 01:50:35;;;;;;;4.97;2.67;;;;;;;16.14;83.36;99834.42;1677820;84;21206;-81
2021/08/03 01:53:03;;;;;;;5.22;3.02;;;;;;;16.13;83.07;99843.36;1689625;83;21055;-81
2021/08/03 01:55:31;;;;;;;9.75;2.87;;;;;;;16.10;83.70;99843.57;1715941;83;21054;-79
2021/08/03 01:58:00;;;;;;;7.12;2.92;;;;;;;16.07;82.51;99841.09;1718489;82;21050;-81
2021/08/03 02:00:30;;;;;;;6.08;3.62;;;;;;;16.07;83.69;99849.06;1718225;82;21105;-78
2021/08/03 02:03:02;;;;;;;6.70;3.45;;;;;;;16.06;84.12;99847.37;1718295;82;21132;-81
2021/08/03 02:05:30;;;;;;;5.60;3.15;;;;;;;16.03;84.32;99846.22;1718525;82;21085;-79
2021/08/03 02:08:00;;;;;;;6.92;3.30;;;;;;;16.03;84.94;99848.03;1718368;82;21160;-79
2021/08/03 02:10:28;;;;;;;4.17;2.60;;;;;;;16.01;84.06;99856.11;1717780;82;21082;-79
2021/08/03 02:12:55;;;;;;;5.45;3.20;;;;;;;15.97;83.70;99861.23;1718645;82;21057;-76
2021/08/03 02:15:23;;;;;;;3.67;2.40;;;;;;;15.93;83.62;99855.73;1705933;83;21133;-79
2021/08/03 02:17:51;;;;;;;4.60;2.95;;;;;;;15.89;84.30;99858.20;1718386;82;21101;-79
2021/08/03 02:20:20;;;;;;;4.00;2.87;;;;;;;15.87;84.84;99862.75;1712717;82;21049;-80
2021/08/03 02:22:49;;;;;;;4.58;2.90;;;;;;;15.81;84.37;99864.48;1677695;84;21141;-78
2021/08/03 02:25:18;;;;;;;5.22;2.95;;;;;;;15.77;84.96;99865.63;1689075;84;21098;-79
2021/08/03 02:27:46;;;;;;;5.25;2.55;;;;;;;15.75;85.65;99860.88;1732677;81;21144;-79
2021/08/03 02:30:14;;;;;;;4.83;3.00;;;;;;;15.71;86.02;99858.42;1757731;81;21528;-78
2021/08/03 02:32:57;;;;;;;5.87;3.30;;;;;;;15.69;86.36;99864.27;1757506;81;21041;-77
2021/08/03 02:35:30;;;;;;;6.28;3.10;;;;;;;15.67;86.44;99863.99;1757546;81;21592;-79
2021/08/03 02:38:05;;;;;;;6.75;2.47;;;;;;;15.63;86.45;99860.66;1758173;81;21097;-77
2021/08/03 02:40:33;;;;;;;9.25;3.55;;;;;;;15.60;86.70;99874.13;1757739;81;21125;-77
2021/08/03 02:43:06;;;;;;;8.75;3.02;;;;;;;15.58;86.67;99873.38;1757133;81;21092;-74
2021/08/03 02:45:34;;;;;;;5.67;2.80;;;;;;;15.53;86.99;99876.31;1779102;80;21052;-76
2021/08/03 02:48:11;;;;;;;6.08;2.87;;;;;;;15.52;87.44;99876.39;1743728;82;21564;-75
2021/08/03 02:50:42;;;;;;;4.28;2.45;;;;;;;15.48;86.23;99886.81;1778675;80;21021;-75
2021/08/03 02:53:24;;;;;;;3.92;3.15;;;;;;;15.49;87.13;99892.52;1744135;82;21819;-75
2021/08/03 02:56:00;;;;;;;6.62;3.37;;;;;;;15.47;87.59;99894.41;1746019;82;20993;-76
2021/08/03 02:58:42;;;;;;;10.05;2.90;;;;;;;15.45;87.86;99892.31;1727348;83;21642;-76
2021/08/03 03:01:11;;;;;;;4.60;3.15;;;;;;;15.44;87.85;99899.91;1748299;80;21064;-75
2021/08/03 03:03:46;;;;;;;5.00;2.90;;;;;;;15.44;87.75;99900.76;1748156;82;21554;-74
2021/08/03 03:06:13;;;;;;;5.20;3.10;;;;;;;15.43;87.44;99904.82;1748327;81;21531;-73
2021/08/03 03:08:43;;;;;;;4.78;2.80;;;;;;;15.46;88.19;99901.97;1748226;82;21622;-74
2021/08/03 03:11:11;;;;;;;5.90;2.70;;;;;;;15.50;87.87;99899.52;1748133;81;21534;-73
2021/08/03 03:13:51;;;;;;;3.17;1.93;;;;;;;15.54;88.48;99901.05;1748486;81;21075;-74
2021/08/03 03:16:20;;;;;;;9.15;3.33;;;;;;;15.61;88.88;99900.20;1756059;81;21078;-78
2021/08/03 03:18:48;;;;;;;3.50;2.62;;;;;;;15.70;88.79;99904.48;1756309;81;21582;-76
2021/08/03 03:21:19;;;;;;;2.77;2.35;;;;;;;15.81;88.65;99904.31;1747978;82;21055;-77
2021/08/03 03:23:49;;;;;;;5.10;2.40;;;;;;;15.92;88.68;99905.83;1748343;82;21074;-76
2021/08/03 03:26:17;;;;;;;2.75;2.17;;;;;;;16.03;87.81;99905.98;1748252;81;21570;-77
2021/08/03 03:28:45;;;;;;;5.00;2.50;;;;;;;16.17;86.88;99910.41;1748087;81;21108;-77
2021/08/03 03:31:13;;;;;;;4.08;2.30;;;;;;;16.34;86.47;99905.37;1748059;82;21144;-79
2021/08/03 03:33:42;;;;;;;2.85;2.00;;;;;;;16.58;84.86;99911.72;1748181;82;21106;-79
2021/08/03 03:36:10;;;;;;;3.40;2.30;;;;;;;17.05;84.84;99914.05;1748255;82;21020;-77
2021/08/03 03:38:38;;;;;;;5.75;2.83;;;;;;;17.69;81.74;99914.95;1748159;81;21114;-75
2021/08/03 03:41:07;;;;;;;2.72;2.30;;;;;;;18.32;78.28;99925.15;1748341;82;21056;-75
2021/08/03 03:43:35;;;;;;;4.85;2.37;;;;;;;18.91;76.68;99920.87;1733236;82;21059;-77
2021/08/03 03:46:15;;;;;;;2.60;2.17;;;;;;;19.41;72.26;99919.69;1748067;81;21521;-79
2021/08/03 03:48:48;;;;;;;4.35;2.65;;;;;;;19.91;70.97;99919.41;1748474;81;22339;-79
2021/08/03 03:51:18;;;;;;;9.50;2.52;;;;;;;20.39;69.21;99924.96;1748046;81;21040;-72
2021/08/03 03:53:49;;;;;;;3.35;2.50;;;;;;;20.76;65.58;99924.65;1745131;82;21573;-76
2021/08/03 03:56:17;;;;;;;5.62;2.42;;;;;;;21.07;65.58;99929.15;1741312;81;21105;-78
2021/08/03 03:58:52;;;;;;;6.20;2.45;;;;;;;21.35;64.28;99922.79;1731491;81;21604;-79
2021/08/03 04:01:22;;;;;;;3.47;2.35;;;;;;;21.64;61.40;99931.52;1744839;80;21056;-78
2021/08/03 04:03:52;;;;;;;4.37;3.05;;;;;;;21.91;62.28;99925.09;1761284;80;21096;-78
2021/08/03 04:06:20;;;;;;;3.87;2.20;;;;;;;22.22;60.22;99933.63;1753450;80;26810;-79
2021/08/03 04:08:47;;;;;;;3.12;2.37;;;;;;;22.51;58.75;99929.69;1752934;80;21136;-81
2021/08/03 04:11:16;;;;;;;6.25;2.17;;;;;;;22.75;58.55;99927.94;1770161;80;21048;-79
2021/08/03 04:13:49;;;;;;;2.77;2.30;;;;;;;22.92;55.33;99925.91;1748051;80;21044;-75
2021/08/03 04:16:19;;;;;;;3.35;2.47;;;;;;;23.18;56.59;99924.86;1748408;80;21059;-79
2021/08/03 04:18:47;;;;;;;3.95;2.30;;;;;;;23.50;55.63;99922.34;1760807;80;21120;-77
2021/08/03 04:21:15;;;;;;;4.47;2.33;;;;;;;23.77;54.10;99923.44;1760734;80;21975;-80
2021/08/03 04:23:43;;;;;;;3.70;2.62;;;;;;;23.94;54.35;99932.06;1765590;80;21697;-78
2021/08/03 04:26:10;;;;;;;4.42;2.15;;;;;;;24.12;52.98;99933.98;1773768;80;21024;-79
2021/08/03 04:28:38;;;;;;;4.15;2.55;;;;;;;24.33;52.69;99933.22;1763276;80;21074;-79
2021/08/03 04:31:05;;;;;;;2.92;2.20;;;;;;;24.66;52.47;99930.92;1787396;80;21031;-81
2021/08/03 04:33:32;;;;;;;4.62;2.55;;;;;;;24.89;49.38;99928.14;1776597;80;21118;-78
2021/08/03 04:35:59;;;;;;;3.83;2.58;;;;;;;25.06;50.93;99925.09;1776375;80;21068;-75
2021/08/03 04:38:26;;;;;;;3.25;2.35;;;;;;;25.24;49.67;99919.71;1787616;80;21005;-81
2021/08/03 04:40:55;;;;;;;3.95;2.60;;;;;;;25.47;48.71;99919.20;1766076;80;21025;-79
2021/08/03 04:43:22;;;;;;;7.17;2.40;;;;;;;25.74;49.44;99927.13;1740094;81;21006;-78
2021/08/03 04:45:49;;;;;;;3.60;2.90;;;;;;;26.02;46.97;99924.27;1736082;79;21596;-79
2021/08/03 04:48:16;;;;;;;6.05;2.90;;;;;;;26.25;47.71;99925.02;1669760;82;30061;-78
2021/08/03 04:50:44;;;;;;;5.20;2.55;;;;;;;26.38;47.56;99919.49;1649007;85;21684;-77
2021/08/03 04:53:12;;;;;;;3.67;2.70;;;;;;;26.57;47.20;99925.65;1640829;84;21093;-78
2021/08/03 04:55:39;;;;;;;4.72;2.60;;;;;;;26.79;45.98;99918.78;1661279;84;21057;-78
2021/08/03 04:58:06;;;;;;;3.40;2.67;;;;;;;26.90;45.53;99924.37;1665247;86;21144;-79
2021/08/03 05:00:33;;;;;;;3.87;2.90;;;;;;;26.72;45.79;99921.30;1651549;86;21083;-78
2021/08/03 05:03:00;;;;;;;8.48;3.00;;;;;;;26.74;45.74;99921.98;1674981;85;21139;-78
2021/08/03 05:05:27;;;;;;;5.70;2.87;;;;;;;26.88;45.68;99921.83;1675627;85;21481;-78
2021/08/03 05:08:00;;;;;;;6.80;3.33;;;;;;;27.04;45.52;99930.45;1675401;85;21125;-77
2021/08/03 05:10:29;;;;;;;5.92;2.80;;;;;;;27.21;45.12;99921.87;1673819;85;21085;-78
2021/08/03 05:12:56;;;;;;;4.58;2.65;;;;;;;27.44;43.81;99929.29;1674856;85;21565;-77
2021/08/03 05:15:26;;;;;;;4.55;2.72;;;;;;;27.75;43.59;99922.14;1675351;85;21050;-78
2021/08/03 05:17:54;;;;;;;3.77;2.60;;;;;;;27.92;42.32;99934.30;1675718;85;21084;-78
2021/08/03 05:20:21;;;;;;;9.28;2.75;;;;;;;27.87;42.18;99933.98;1675651;85;21125;-77
2021/08/03 05:22:49;;;;;;;4.25;2.80;;;;;;;27.89;43.21;99933.30;1675948;85;21089;-79
2021/08/03 05:25:16;;;;;;;7.00;2.45;;;;;;;27.84;42.23;99937.88;1663290;85;21097;-76
2021/08/03 05:27:43;;;;;;;3.05;2.50;;;;;;;27.84;43.17;99929.77;1671052;81;21131;-75
2021/08/03 05:30:12;;;;;;;3.30;2.80;;;;;;;27.85;42.68;99936.02;1629968;86;21115;-74
2021/08/03 05:32:38;;;;;;;4.12;2.58;;;;;;;27.91;42.81;99938.03;1608733;87;21245;-76
2021/08/03 05:35:07;;;;;;;4.55;2.47;;;;;;;28.16;42.91;99938.77;1630668;87;22143;-75
2021/08/03 05:37:36;;;;;;;4.85;2.50;;;;;;;28.39;41.50;99932.92;1660760;85;21088;-76
2021/08/03 05:40:08;;;;;;;5.50;2.65;;;;;;;28.61;41.44;99934.00;1615175;87;21110;-75
2021/08/03 05:42:33;;;;;;;;;;;;;;;28.86;40.66;99940.63;1667105;84;21093;-75
2021/08/03 05:45:00;;;;;;;2.65;2.10;;;;;;;29.03;40.26;99938.14;1664273;84;20176;-75
2021/08/03 05:47:27;;;;;;;6.00;2.62;;;;;;;29.20;40.33;99943.45;1658999;84;21109;-74
2021/08/03 05:49:54;;;;;;;3.80;2.90;;;;;;;29.32;39.63;99940.63;1671861;84;21052;-77
2021/08/03 05:52:21;;;;;;;3.87;2.30;;;;;;;29.30;38.82;99945.39;1661887;84;21088;-75
2021/08/03 05:54:49;;;;;;;4.53;2.22;;;;;;;29.14;39.44;99948.24;1654696;83;21041;-75
2021/08/03 05:57:18;;;;;;;4.72;2.80;;;;;;;29.09;39.02;99950.66;1635218;87;22085;-75
2021/08/03 05:59:47;;;;;;;11.97;3.35;;;;;;;29.17;39.58;99953.29;1651121;85;21156;-76
2021/08/03 06:02:17;;;;;;;3.95;2.58;;;;;;;29.22;39.34;99957.16;1651916;84;21095;-76
2021/08/03 06:04:44;;;;;;;3.00;2.70;;;;;;;29.44;38.13;99955.42;1648669;85;21081;-75
2021/08/03 06:07:12;;;;;;;4.53;2.70;;;;;;;29.61;38.83;99959.33;1647618;84;21079;-74
2021/08/03 06:09:39;;;;;;;5.72;2.90;;;;;;;29.87;37.91;99957.59;1654991;85;21658;-74
2021/08/03 06:12:06;;;;;;;6.87;2.80;;;;;;;30.07;37.37;99956.50;1647770;84;21221;-75
2021/08/03 06:14:44;;;;;;;9.08;2.80;;;;;;;30.18;37.40;99958.73;1648820;84;21146;-74
2021/08/03 06:17:13;;;;;;;3.33;2.50;;;;;;;30.19;36.22;99965.88;1647591;86;21062;-77
2021/08/03 06:19:45;;;;;;;4.90;2.80;;;;;;;29.86;37.60;99972.17;1649314;84;21083;-76
2021/08/03 06:22:13;;;;;;;5.05;2.70;;;;;;;29.77;37.37;99971.44;1655192;85;21071;-77
2021/08/03 06:24:41;;;;;;;4.60;2.80;;;;;;;29.41;36.67;99978.02;1662329;85;21382;-75
2021/08/03 06:27:17;;;;;;;3.77;2.83;;;;;;;29.25;38.02;99981.71;1656402;85;21171;-75
2021/08/03 06:29:44;;;;;;;4.40;3.10;;;;;;;29.00;37.74;99985.08;1649498;85;21136;-78
2021/08/03 06:32:12;;;;;;;3.02;2.72;;;;;;;28.96;38.66;99981.88;1666358;85;21018;-76
2021/08/03 06:34:43;;;;;;;4.75;2.15;;;;;;;29.19;38.65;99986.49;1668583;85;21071;-78
2021/08/03 06:37:14;;;;;;;3.70;2.72;;;;;;;29.55;36.88;99984.52;1656588;86;21317;-76
2021/08/03 06:39:41;;;;;;;4.80;2.42;;;;;;;29.79;36.95;99984.28;1657395;86;21020;-78
2021/08/03 06:42:47;;;;;;;6.08;2.45;;;;;;;30.13;36.11;99984.27;1656497;86;21131;-78
2021/08/03 06:45:20;;;;;;;3.95;2.80;;;;;;;30.30;34.99;99981.73;1656146;86;21100;-79
2021/08/03 06:48:09;;;;;;;2.80;2.37;;;;;;;30.37;35.06;99980.45;1656779;86;21013;-79
2021/08/03 06:50:42;;;;;;;3.40;2.42;;;;;;;30.04;35.08;99984.86;1649080;85;21597;-74
2021/08/03 06:53:10;;;;;;;2.95;2.20;;;;;;;29.64;34.53;99998.33;1624092;84;21286;-76
2021/08/03 06:55:41;;;;;;;3.17;2.80;;;;;;;29.39;36.32;99995.83;1637590;85;21052;-77
2021/08/03 06:58:12;;;;;;;3.25;2.47;;;;;;;29.13;35.82;99990.78;1646982;85;21026;-77
2021/08/03 07:00:40;;;;;;;6.83;2.75;;;;;;;29.20;35.83;99993.63;1650817;85;21055;-76
2021/08/03 07:03:07;;;;;;;3.77;2.60;;;;;;;29.37;36.72;99989.73;1666506;85;21135;-77
2021/08/03 07:05:43;;;;;;;3.70;2.60;;;;;;;29.68;35.50;99986.13;1675341;85;21087;-76
2021/08/03 07:08:10;;;;;;;5.03;2.60;;;;;;;30.19;35.83;99991.67;1661230;85;21012;-76
2021/08/03 07:10:37;;;;;;;3.37;2.40;;;;;;;30.42;33.19;99996.19;1644476;86;21116;-75
2021/08/03 07:13:05;;;;;;;3.72;2.62;;;;;;;30.14;33.09;99992.76;1647899;85;21093;-77
2021/08/03 07:15:36;;;;;;;3.95;2.65;;;;;;;30.05;34.44;99993.87;1660081;85;21138;-77
2021/08/03 07:18:04;;;;;;;3.72;2.75;;;;;;;30.05;34.57;99999.31;1671004;85;21045;-77
2021/08/03 07:20:32;;;;;;;4.62;3.22;;;;;;;29.77;34.48;99994.52;1615356;87;21104;-76
2021/08/03 07:23:02;;;;;;;2.65;2.30;;;;;;;29.69;35.51;99998.65;1649862;86;21055;-78
2021/08/03 07:25:31;;;;;;;3.55;2.52;;;;;;;29.84;33.76;99995.45;1615979;88;21058;-77
2021/08/03 07:27:58;;;;;;;5.40;2.35;;;;;;;30.07;34.42;99989.08;1614820;88;21149;-80
2021/08/03 07:30:26;;;;;;;5.12;2.52;;;;;;;30.29;33.88;99986.81;1635094;86;21088;-72
2021/08/03 07:32:53;;;;;;;4.72;2.30;;;;;;;30.34;32.07;99986.77;1636918;87;21056;-74
2021/08/03 07:35:20;;;;;;;13.00;2.30;;;;;;;30.42;32.92;99990.75;1639144;87;21088;-75
2021/08/03 07:37:47;;;;;;;9.28;2.50;;;;;;;30.61;31.22;99990.14;1639021;87;21761;-74
2021/08/03 07:40:14;;;;;;;4.45;2.10;;;;;;;30.72;30.80;99986.94;1638658;87;21151;-76
2021/08/03 07:42:41;;;;;;;2.30;2.08;;;;;;;30.71;31.88;99993.42;1639118;87;21076;-74
2021/08/03 07:45:08;;;;;;;7.03;2.10;;;;;;;30.91;31.24;99990.10;1617164;87;21109;-74
2021/08/03 07:47:35;;;;;;;5.37;1.80;;;;;;;31.24;30.78;99986.87;1613807;87;21082;-75
2021/08/03 07:50:02;;;;;;;3.10;2.20;;;;;;;31.00;30.03;99989.47;1640214;87;21103;-75
2021/08/03 07:52:29;;;;;;;3.22;2.47;;;;;;;31.00;30.03;99989.47;1609022;87;21533;-75
2021/08/03 07:54:57;;;;;;;3.42;2.20;;;;;;;30.87;30.97;99996.95;1621303;87;21587;-75
2021/08/03 07:57:24;;;;;;;4.85;2.15;;;;;;;30.80;31.58;99994.65;1619344;88;21552;-75
2021/08/03 07:59:53;;;;;;;6.25;2.20;;;;;;;31.07;30.82;99989.85;1639229;86;21080;-74
2021/08/03 08:02:21;;;;;;;6.47;1.85;;;;;;;31.16;29.86;99993.29;1639310;87;21108;-76
2021/08/03 08:04:48;;;;;;;5.17;2.15;;;;;;;31.10;29.46;99995.41;1617199;87;21236;-75
2021/08/03 08:07:15;;;;;;;3.33;2.30;;;;;;;31.10;29.46;99995.41;1635536;87;21072;-75
2021/08/03 08:09:42;;;;;;;5.28;1.95;;;;;;;30.95;29.13;99994.13;1618832;87;21711;-74
2021/08/03 08:12:11;;;;;;;4.37;2.10;;;;;;;31.26;29.91;99982.08;1619874;87;21064;-75
2021/08/03 08:14:40;;;;;;;3.10;1.60;;;;;;;31.26;29.91;99982.08;1607273;88;21729;-75
2021/08/03 08:17:09;;;;;;;3.27;2.02;;;;;;;31.45;28.68;99986.03;1627563;87;21163;-74
2021/08/03 08:19:38;;;;;;;7.80;2.05;;;;;;;31.53;29.09;99978.58;1625410;87;26639;-75
2021/08/03 08:22:08;;;;;;;4.37;2.30;;;;;;;31.47;29.46;99994.84;1635205;87;21612;-77
2021/08/03 08:24:38;;;;;;;6.08;2.37;;;;;;;31.47;29.46;99994.84;1634885;87;21077;-74
2021/08/03 08:27:05;;;;;;;4.28;1.98;;;;;;;31.57;29.14;99984.48;1623043;87;21085;-74
2021/08/03 08:29:32;;;;;;;3.37;1.87;;;;;;;31.74;29.09;99987.73;1620606;88;21169;-74
2021/08/03 08:31:59;;;;;;;2.33;1.90;;;;;;;32.01;28.45;99986.60;1614017;88;21137;-73
2021/08/03 08:34:26;;;;;;;3.45;1.80;;;;;;;32.21;27.60;99983.47;1615645;88;21651;-74
2021/08/03 08:36:53;;;;;;;5.03;2.30;;;;;;;32.30;27.76;99986.34;1605966;88;21101;-73
2021/08/03 08:39:20;;;;;;;5.33;2.10;;;;;;;32.38;27.97;99978.52;1593219;90;21674;-74
2021/08/03 08:41:47;;;;;;;4.28;1.92;;;;;;;32.01;28.40;99981.98;1615472;88;21709;-74
2021/08/03 08:44:14;;;;;;;2.65;1.67;;;;;;;31.91;28.43;99980.96;1615390;88;21049;-74
2021/08/03 08:46:41;;;;;;;2.02;1.82;;;;;;;32.05;28.67;99974.24;1632169;87;21194;-74
2021/08/03 08:49:08;;;;;;;2.17;1.77;;;;;;;32.18;27.36;99976.52;1628559;87;21075;-73
2021/08/03 08:51:36;;;;;;;5.37;1.98;;;;;;;32.14;27.98;99980.71;1620544;87;21060;-73
2021/08/03 08:54:04;;;;;;;3.87;2.00;;;;;;;32.24;27.83;99977.61;1632681;87;21198;-72
2021/08/03 08:56:31;;;;;;;10.85;2.77;;;;;;;32.27;27.83;99978.56;1634040;87;21544;-73
2021/08/03 08:58:59;;;;;;;2.37;1.62;;;;;;;32.41;28.01;99968.56;1629503;87;22260;-72
2021/08/03 09:01:27;;;;;;;3.42;2.15;;;;;;;32.47;27.07;99977.83;1607077;88;21114;-73
2021/08/03 09:03:54;;;;;;;2.62;1.80;;;;;;;32.45;28.08;99973.09;1620594;87;21123;-74
2021/08/03 09:06:22;;;;;;;3.98;2.20;;;;;;;32.52;28.44;99971.27;1618651;88;21826;-75
2021/08/03 09:08:50;;;;;;;5.03;2.20;;;;;;;32.64;27.65;99975.07;1621776;88;21109;-73
2021/08/03 09:11:21;;;;;;;5.85;2.15;;;;;;;32.46;28.03;99981.05;1619977;88;21558;-73
2021/08/03 09:13:55;;;;;;;4.40;2.25;;;;;;;31.92;27.98;99980.44;1633515;87;21088;-75
2021/08/03 09:16:26;;;;;;;2.15;1.90;;;;;;;31.64;28.88;99973.65;1619897;87;21093;-74
2021/08/03 09:18:57;;;;;;;4.25;1.77;;;;;;;31.58;29.03;99972.55;1622561;87;21118;-75
2021/08/03 09:21:29;;;;;;;3.50;2.12;;;;;;;31.69;28.41;99975.25;1621300;88;21018;-74
2021/08/03 09:23:59;;;;;;;2.17;1.80;;;;;;;31.66;28.94;99972.41;1621705;87;21080;-75
2021/08/03 09:26:46;;;;;;;3.70;1.87;;;;;;;31.64;29.47;99967.68;1613732;88;21662;-77
2021/08/03 09:29:15;;;;;;;3.87;2.15;;;;;;;31.54;29.31;99969.39;1630616;87;21176;-75
2021/08/03 09:31:51;;;;;;;2.00;1.82;;;;;;;31.25;29.23;99965.45;1627295;86;21918;-76
2021/08/03 09:34:18;;;;;;;4.33;2.12;;;;;;;31.07;29.01;99956.38;1593394;88;21147;-76
2021/08/03 09:36:53;;;;;;;1.92;1.70;;;;;;;30.96;28.64;99956.89;1610369;88;21067;-78
2021/08/03 09:39:50;;;;;;;2.85;2.02;;;;;;;31.03;29.48;99950.48;1612425;88;21156;-77
2021/08/03 09:42:19;;;;;;;5.17;2.12;;;;;;;31.34;28.78;99941.14;1638717;87;21520;-76
2021/08/03 09:44:52;;;;;;;3.95;2.00;;;;;;;31.39;28.80;99944.11;1637257;87;21105;-75
2021/08/03 09:47:19;;;;;;;3.45;1.92;;;;;;;31.33;29.42;99944.89;1636597;87;21722;-76
2021/08/03 09:49:49;;;;;;;3.72;1.90;;;;;;;31.41;29.07;99935.27;1639409;86;21056;-76
2021/08/03 09:52:27;;;;;;;3.97;2.00;;;;;;;31.46;29.25;99942.31;1641676;86;21108;-77
2021/08/03 09:55:14;;;;;;;3.08;1.90;;;;;;;31.46;28.64;99933.31;1627103;87;22259;-77
2021/08/03 09:57:42;;;;;;;2.05;1.77;;;;;;;31.29;28.53;99936.79;1633251;87;21537;-77
2021/08/03 10:00:34;;;;;;;2.52;1.95;;;;;;;31.37;28.57;99924.41;1629909;87;21081;-76
2021/08/03 10:03:01;;;;;;;2.83;1.67;;;;;;;31.62;28.31;99933.02;1635996;87;21058;-77
2021/08/03 10:05:29;;;;;;;3.00;1.62;;;;;;;31.96;27.54;99925.41;1648872;87;21727;-76
2021/08/03 10:07:56;;;;;;;3.80;1.90;;;;;;;32.23;28.47;99921.42;1634437;87;21105;-77
2021/08/03 10:10:22;;;;;;;4.75;1.90;;;;;;;32.43;26.87;99920.67;1632362;87;21566;-76
2021/08/03 10:12:51;;;;;;;2.80;1.92;;;;;;;32.18;27.14;99922.56;1638308;87;21155;-77
2021/08/03 10:15:19;;;;;;;5.17;1.87;;;;;;;31.98;27.25;99924.69;1637868;87;21156;-77
2021/08/03 10:17:48;;;;;;;7.62;1.92;;;;;;;31.77;26.51;99921.99;1607100;87;21623;-77
2021/08/03 10:20:16;;;;;;;5.62;2.52;;;;;;;31.64;27.37;99917.33;1615739;88;21081;-77
2021/08/03 10:22:48;;;;;;;5.25;1.82;;;;;;;31.63;28.29;99928.40;1620348;88;21110;-75
2021/08/03 10:25:18;;;;;;;3.30;2.00;;;;;;;31.53;27.92;99924.67;1616404;88;21087;-77
2021/08/03 10:27:47;;;;;;;2.22;1.90;;;;;;;31.53;28.52;99927.39;1617175;88;21246;-77
2021/08/03 10:30:35;;;;;;;4.28;2.40;;;;;;;31.47;27.29;99927.69;1610450;87;21046;-77
2021/08/03 10:33:12;;;;;;;3.80;2.20;;;;;;;31.33;28.03;99928.56;1626463;87;21145;-77
2021/08/03 10:35:53;;;;;;;4.75;2.40;;;;;;;31.33;28.57;99925.84;1637940;87;21146;-77
2021/08/03 10:38:28;;;;;;;3.00;1.90;;;;;;;31.36;28.63;99920.86;1637510;87;21224;-77
2021/08/03 10:40:57;;;;;;;3.00;2.12;;;;;;;31.25;27.94;99917.84;1636661;87;21078;-77
2021/08/03 10:43:41;;;;;;;2.30;2.10;;;;;;;30.76;29.38;99912.66;1637392;87;21058;-76
2021/08/03 10:46:16;;;;;;;3.05;2.02;;;;;;;30.65;29.21;99914.53;1637614;87;21509;-76
2021/08/03 10:48:45;;;;;;;5.70;2.12;;;;;;;30.96;28.72;99917.47;1632834;87;22117;-76
2021/08/03 10:51:20;;;;;;;5.05;2.10;;;;;;;31.27;29.00;99919.33;1617704;87;21123;-77
2021/08/03 10:54:04;;;;;;;4.17;1.90;;;;;;;31.54;28.55;99925.84;1613133;88;21133;-77
2021/08/03 10:56:56;;;;;;;5.53;2.02;;;;;;;31.67;28.44;99925.61;1605162;89;21117;-76
2021/08/03 10:59:38;;;;;;;4.97;2.30;;;;;;;31.86;28.04;99927.59;1627518;87;21055;-77
2021/08/03 11:02:15;;;;;;;2.50;2.10;;;;;;;32.15;27.91;99924.34;1586722;90;21497;-78
2021/08/03 11:04:54;;;;;;;3.70;2.30;;;;;;;32.30;27.67;99916.87;1601293;87;21095;-78
2021/08/03 11:07:31;;;;;;;3.67;2.05;;;;;;;32.41;27.62;99914.06;1619365;88;21063;-76
2021/08/03 11:10:20;;;;;;;11.05;2.22;;;;;;;32.49;27.18;99914.42;1610106;89;21077;-76
2021/08/03 11:12:51;;;;;;;2.72;1.92;;;;;;;32.31;26.96;99919.90;1616996;88;21120;-77
2021/08/03 11:15:26;;;;;;;8.58;2.40;;;;;;;31.94;27.35;99916.56;1616629;88;21145;-77
2021/08/03 11:18:08;;;;;;;3.95;2.37;;;;;;;31.50;27.94;99916.39;1631500;87;21573;-79
2021/08/03 11:20:39;;;;;;;;;;;;;;;31.36;28.45;99914.59;1640467;87;21580;-77
2021/08/03 11:23:14;;;;;;;3.85;2.30;;;;;;;31.38;28.89;99915.20;1606574;89;20249;-77
2021/08/03 11:25:43;;;;;;;3.08;2.27;;;;;;;31.60;28.24;99907.03;1593930;88;21156;-76
2021/08/03 11:28:17;;;;;;;2.47;2.27;;;;;;;31.44;27.67;99900.84;1617266;88;21072;-76
2021/08/03 11:30:47;;;;;;;4.45;2.00;;;;;;;31.26;28.02;99903.19;1618946;87;21052;-75
2021/08/03 11:33:15;;;;;;;2.75;2.20;;;;;;;31.02;27.75;99902.58;1638781;87;21104;-77
2021/08/03 11:35:42;;;;;;;4.87;2.10;;;;;;;30.82;28.54;99888.76;1639004;87;21090;-77
2021/08/03 11:38:13;;;;;;;5.92;2.00;;;;;;;30.62;28.23;99896.73;1639534;87;21082;-77
2021/08/03 11:40:41;;;;;;;3.92;1.98;;;;;;;30.37;29.18;99895.37;1629562;87;21512;-75
2021/08/03 11:43:09;;;;;;;3.15;1.87;;;;;;;30.10;30.67;99895.05;1617401;87;21127;-77
2021/08/03 11:45:39;;;;;;;3.30;2.10;;;;;;;29.86;30.55;99891.61;1609167;87;21106;-77
2021/08/03 11:48:17;;;;;;;5.95;2.25;;;;;;;29.71;31.74;99901.61;1608534;87;21073;-77
2021/08/03 11:50:44;;;;;;;4.60;2.10;;;;;;;29.13;31.42;99904.02;1634801;87;21527;-77
2021/08/03 11:53:13;;;;;;;4.58;1.90;;;;;;;29.13;31.42;99904.02;1632954;87;21572;-77